createdAt,value
2023-02-16T00:01:18.454Z,32.50
2023-02-16T00:03:45.404Z,32.00
2023-02-16T00:06:12.112Z,32.03
2023-02-16T00:08:38.629Z,32.40
2023-02-16T00:11:05.544Z,32.90
2023-02-16T00:13:32.216Z,32.47
2023-02-16T00:15:58.692Z,32.77
2023-02-16T00:18:25.157Z,33.38
2023-02-16T00:20:52.067Z,33.03
2023-02-16T00:23:18.526Z,32.55
2023-02-16T00:25:45.061Z,32.22
2023-02-16T00:28:20.508Z,32.57
2023-02-16T00:30:47.908Z,31.42
2023-02-16T00:33:20.872Z,31.48
2023-02-16T00:35:47.726Z,31.85
2023-02-16T00:38:14.636Z,30.98
2023-02-16T00:40:42.516Z,31.83
2023-02-16T00:43:21.817Z,32.78
2023-02-16T00:45:48.427Z,31.88
2023-02-16T00:48:14.917Z,31.83
2023-02-16T00:50:41.467Z,32.88
2023-02-16T00:53:07.950Z,32.23
2023-02-16T00:55:36.084Z,31.63
2023-02-16T00:58:12.813Z,32.25
2023-02-16T01:00:47.688Z,30.63
2023-02-16T01:03:18.568Z,32.05
2023-02-16T01:05:45.534Z,31.57
2023-02-16T01:08:15.867Z,30.75
2023-02-16T01:10:42.630Z,33.03
2023-02-16T01:13:11.364Z,32.08
2023-02-16T01:15:38.900Z,31.83
2023-02-16T01:18:06.711Z,32.17
2023-02-16T01:20:34.006Z,32.80
2023-02-16T01:23:00.476Z,33.80
2023-02-16T01:25:27.230Z,32.67
2023-02-16T01:27:53.876Z,31.90
2023-02-16T01:30:22.311Z,33.63
2023-02-16T01:32:49.611Z,31.98
2023-02-16T01:35:16.077Z,32.88
2023-02-16T01:37:42.475Z,33.35
2023-02-16T01:40:23.037Z,33.53
2023-02-16T01:42:58.416Z,32.43
2023-02-16T01:45:33.765Z,32.75
2023-02-16T01:48:13.872Z,32.65
2023-02-16T01:50:54.579Z,32.95
2023-02-16T01:53:31.599Z,32.38
2023-02-16T01:56:06.035Z,33.00
2023-02-16T01:58:45.021Z,32.92
2023-02-16T02:01:33.487Z,34.28
2023-02-16T02:04:00.669Z,32.30
2023-02-16T02:06:34.573Z,34.40
2023-02-16T02:09:35.504Z,33.93
2023-02-16T02:12:24.279Z,33.53
2023-02-16T02:14:50.751Z,34.85
2023-02-16T02:17:20.030Z,35.35
2023-02-16T02:19:58.398Z,36.25
2023-02-16T02:22:30.652Z,34.90
2023-02-16T02:28:44.167Z,34.45
2023-02-16T02:31:16.124Z,33.05
2023-02-16T02:33:57.740Z,34.58
2023-02-16T02:36:39.223Z,34.57
2023-02-16T02:39:33.539Z,34.67
2023-02-16T02:42:02.838Z,34.65
2023-02-16T02:44:30.843Z,34.45
2023-02-16T02:46:57.439Z,35.15
2023-02-16T02:49:23.933Z,35.50
2023-02-16T02:51:51.448Z,36.72
2023-02-16T02:54:25.237Z,37.50
2023-02-16T02:57:04.520Z,36.42
2023-02-16T02:59:32.863Z,35.88
2023-02-16T03:02:01.598Z,36.20
2023-02-16T03:04:33.153Z,36.67
2023-02-16T03:07:03.276Z,35.58
2023-02-16T03:09:29.769Z,36.45
2023-02-16T03:11:58.250Z,36.13
2023-02-16T03:14:27.140Z,35.53
2023-02-16T03:17:13.969Z,35.70
2023-02-16T03:19:43.138Z,35.90
2023-02-16T03:22:09.684Z,36.40
2023-02-16T03:24:36.283Z,37.55
2023-02-16T03:27:03.368Z,35.23
2023-02-16T03:29:31.421Z,34.78
2023-02-16T03:31:58.921Z,37.05
2023-02-16T03:34:26.065Z,34.90
2023-02-16T03:36:56.253Z,35.67
2023-02-16T03:39:22.866Z,35.47
2023-02-16T03:41:52.695Z,34.30
2023-02-16T03:44:19.752Z,35.40
2023-02-16T03:46:46.674Z,35.78
2023-02-16T03:49:13.129Z,34.55
2023-02-16T03:51:39.583Z,36.27
2023-02-16T03:54:06.340Z,36.95
2023-02-16T03:56:32.842Z,37.25
2023-02-16T03:58:59.347Z,35.00
2023-02-16T04:01:26.228Z,35.80
2023-02-16T04:03:52.849Z,35.53
2023-02-16T04:06:19.343Z,37.33
2023-02-16T04:08:46.044Z,35.53
2023-02-16T04:11:12.582Z,36.35
2023-02-16T04:13:39.079Z,36.33
2023-02-16T04:16:05.627Z,36.93
2023-02-16T04:18:32.091Z,36.80
2023-02-16T04:20:58.592Z,37.28
2023-02-16T04:23:25.095Z,36.72
2023-02-16T04:25:51.602Z,37.03
2023-02-16T04:28:18.068Z,35.77
2023-02-16T04:30:44.596Z,37.05
2023-02-16T04:33:11.170Z,37.50
2023-02-16T04:35:37.595Z,37.03
2023-02-16T04:38:04.125Z,38.28
2023-02-16T04:40:30.547Z,35.83
2023-02-16T04:42:57.113Z,37.00
2023-02-16T04:45:23.619Z,38.05
2023-02-16T04:47:50.047Z,38.00
2023-02-16T04:50:16.612Z,36.80
2023-02-16T04:52:43.225Z,37.63
2023-02-16T04:55:09.711Z,35.63
2023-02-16T04:57:37.862Z,36.92
2023-02-16T05:00:08.770Z,37.72
2023-02-16T05:02:35.301Z,35.75
2023-02-16T05:05:01.724Z,35.90
2023-02-16T05:07:28.328Z,36.80
2023-02-16T05:09:54.885Z,36.28
2023-02-16T05:12:21.340Z,36.70
2023-02-16T05:14:47.890Z,36.42
2023-02-16T05:17:20.099Z,36.50
2023-02-16T05:19:50.093Z,35.22
2023-02-16T05:22:17.242Z,36.08
2023-02-16T05:24:44.371Z,36.60
2023-02-16T05:27:22.038Z,37.15
2023-02-16T05:29:49.210Z,36.50
2023-02-16T05:32:16.771Z,36.08
2023-02-16T05:34:43.359Z,35.47
2023-02-16T05:37:10.308Z,37.13
2023-02-16T05:39:36.792Z,37.63
2023-02-16T05:42:03.648Z,34.87
2023-02-16T05:44:30.190Z,36.25
2023-02-16T05:46:56.828Z,36.05
2023-02-16T05:49:23.385Z,35.97
2023-02-16T05:51:49.993Z,35.83
2023-02-16T05:54:16.509Z,33.80
2023-02-16T05:56:47.897Z,35.83
2023-02-16T05:59:14.936Z,36.17
2023-02-16T06:01:41.826Z,36.88
2023-02-16T06:04:13.504Z,36.50
2023-02-16T06:06:40.471Z,37.03
2023-02-16T06:09:08.392Z,35.75
2023-02-16T06:11:35.261Z,36.17
2023-02-16T06:14:10.658Z,36.40
2023-02-16T06:16:39.280Z,34.65
2023-02-16T06:19:06.301Z,35.97
2023-02-16T06:21:33.630Z,35.53
2023-02-16T06:24:00.417Z,37.13
2023-02-16T06:26:27.071Z,37.10
2023-02-16T06:28:55.138Z,36.25
2023-02-16T06:31:22.141Z,38.47
2023-02-16T06:33:49.030Z,36.85
2023-02-16T06:36:15.894Z,36.92
2023-02-16T06:38:42.516Z,36.75
2023-02-16T06:41:09.375Z,35.90
2023-02-16T06:43:36.027Z,35.90
2023-02-16T06:46:02.643Z,35.60
2023-02-16T06:48:29.105Z,36.15
2023-02-16T06:50:55.786Z,34.22
2023-02-16T06:53:22.409Z,34.63
2023-02-16T06:55:51.056Z,33.80
2023-02-16T06:58:17.684Z,33.28
2023-02-16T07:00:44.446Z,34.28
2023-02-16T07:03:11.030Z,35.13
2023-02-16T07:05:37.480Z,35.00
2023-02-16T07:08:04.228Z,33.97
2023-02-16T07:10:40.380Z,34.47
2023-02-16T07:13:14.086Z,33.70
2023-02-16T07:15:40.540Z,31.83
2023-02-16T07:18:07.058Z,34.25
2023-02-16T07:20:33.567Z,33.80
2023-02-16T07:22:59.938Z,32.17
2023-02-16T07:25:26.452Z,33.47
2023-02-16T07:27:52.910Z,33.47
2023-02-16T07:30:19.473Z,32.78
2023-02-16T07:32:45.907Z,34.37
2023-02-16T07:35:12.809Z,32.85
2023-02-16T07:37:39.439Z,33.55
2023-02-16T07:40:06.704Z,31.50
2023-02-16T07:42:33.709Z,32.85
2023-02-16T07:45:00.373Z,32.87
2023-02-16T07:47:26.899Z,32.70
2023-02-16T07:49:53.344Z,33.55
2023-02-16T07:52:19.776Z,33.28
2023-02-16T07:54:46.231Z,33.20
2023-02-16T07:57:12.672Z,33.47
2023-02-16T07:59:39.203Z,33.50
2023-02-16T08:02:06.283Z,33.72
2023-02-16T08:04:34.108Z,33.47
2023-02-16T08:07:00.634Z,33.58
2023-02-16T08:09:27.139Z,31.57
2023-02-16T08:11:53.657Z,30.73
2023-02-16T08:14:20.140Z,32.50
2023-02-16T08:16:46.662Z,32.95
2023-02-16T08:19:13.126Z,32.45
2023-02-16T08:21:39.649Z,32.90
2023-02-16T08:24:08.004Z,32.22
2023-02-16T08:26:37.360Z,32.58
2023-02-16T08:29:06.267Z,32.97
2023-02-16T08:31:35.181Z,33.85
2023-02-16T08:34:03.621Z,33.77
2023-02-16T08:36:35.821Z,32.47
2023-02-16T08:39:05.332Z,34.53
2023-02-16T08:41:35.650Z,34.28
2023-02-16T08:44:03.870Z,33.72
2023-02-16T08:46:31.191Z,34.90
2023-02-16T08:48:58.634Z,34.00
2023-02-16T08:51:26.122Z,35.83
2023-02-16T08:53:52.585Z,36.25
2023-02-16T08:56:19.473Z,33.95
2023-02-16T08:58:46.836Z,35.57
2023-02-16T09:01:14.351Z,34.28
2023-02-16T09:03:43.191Z,36.30
2023-02-16T09:06:12.003Z,37.60
2023-02-16T09:08:38.828Z,36.67
2023-02-16T09:11:14.872Z,36.57
2023-02-16T09:13:42.017Z,37.17
2023-02-16T09:16:12.422Z,36.53
2023-02-16T09:18:40.001Z,37.78
2023-02-16T09:21:12.045Z,37.13
2023-02-16T09:23:39.323Z,35.43
2023-02-16T09:26:06.142Z,35.33
2023-02-16T09:28:39.897Z,35.03
2023-02-16T09:31:15.070Z,36.88
2023-02-16T09:33:44.629Z,37.50
2023-02-16T09:36:13.089Z,38.47
2023-02-16T09:38:40.188Z,38.95
2023-02-16T09:41:23.470Z,40.22
2023-02-16T09:43:53.804Z,40.38
2023-02-16T09:46:23.436Z,42.53
2023-02-16T09:48:50.621Z,41.33
2023-02-16T09:51:29.492Z,40.40
2023-02-16T09:54:14.720Z,42.17
2023-02-16T09:56:49.017Z,40.75
2023-02-16T09:59:44.774Z,41.97
2023-02-16T10:02:11.168Z,42.87
2023-02-16T10:04:49.882Z,44.17
2023-02-16T10:07:41.799Z,46.15
2023-02-16T10:10:10.868Z,43.80
2023-02-16T10:12:44.897Z,42.80
2023-02-16T10:15:18.759Z,42.43
2023-02-16T10:17:48.878Z,43.05
2023-02-16T10:20:24.910Z,43.20
2023-02-16T10:23:13.498Z,42.63
2023-02-16T10:26:18.310Z,42.45
2023-02-16T10:28:49.141Z,43.90
2023-02-16T10:31:36.024Z,42.80
2023-02-16T10:34:25.641Z,41.13
2023-02-16T10:37:03.476Z,41.10
2023-02-16T10:39:32.787Z,40.40
2023-02-16T10:42:17.121Z,41.80
2023-02-16T10:44:59.420Z,40.38
2023-02-16T10:47:34.812Z,39.20
2023-02-16T10:50:01.522Z,39.83
2023-02-16T10:52:33.344Z,41.05
2023-02-16T10:54:59.872Z,40.43
2023-02-16T10:57:29.924Z,39.00
2023-02-16T10:59:59.149Z,40.05
2023-02-16T11:02:36.535Z,40.67
2023-02-16T11:05:25.912Z,36.38
2023-02-16T11:07:54.600Z,38.83
2023-02-16T11:10:33.608Z,38.60
2023-02-16T11:13:00.247Z,37.67
2023-02-16T11:15:28.019Z,36.53
2023-02-16T11:17:59.170Z,36.13
2023-02-16T11:20:26.953Z,35.67
2023-02-16T11:22:53.488Z,37.75
2023-02-16T11:25:19.885Z,34.78
2023-02-16T11:27:53.988Z,34.40
2023-02-16T11:30:41.642Z,35.97
2023-02-16T11:33:23.901Z,33.07
2023-02-16T11:35:50.434Z,35.95
2023-02-16T11:38:37.201Z,35.03
2023-02-16T11:41:07.058Z,33.58
2023-02-16T11:43:37.354Z,31.95
2023-02-16T11:46:16.835Z,31.47
2023-02-16T11:48:44.870Z,31.15
2023-02-16T11:51:12.705Z,32.13
2023-02-16T11:53:40.968Z,32.67
2023-02-16T11:56:29.062Z,30.27
2023-02-16T11:59:18.453Z,29.70
2023-02-16T12:02:17.912Z,26.67
2023-02-16T12:05:29.276Z,26.17
2023-02-16T12:08:01.955Z,23.70
2023-02-16T12:10:43.031Z,24.15
2023-02-16T12:13:12.328Z,23.90
2023-02-16T12:15:56.912Z,23.80
2023-02-16T12:18:41.849Z,25.73
2023-02-16T12:21:17.964Z,24.08
2023-02-16T12:23:56.763Z,24.30
2023-02-16T12:26:43.273Z,25.40
2023-02-16T12:29:31.246Z,23.88
2023-02-16T12:32:31.676Z,25.02
2023-02-16T12:35:38.554Z,24.08
2023-02-16T12:38:40.247Z,22.48
2023-02-16T12:41:37.385Z,22.13
2023-02-16T12:44:11.925Z,21.77
2023-02-16T12:46:43.609Z,20.60
2023-02-16T12:49:40.692Z,20.30
2023-02-16T12:52:19.034Z,19.95
2023-02-16T12:54:51.487Z,19.27
2023-02-16T12:57:22.673Z,18.10
2023-02-16T12:59:59.275Z,17.92
2023-02-16T13:02:41.808Z,17.75
2023-02-16T13:05:23.749Z,17.42
2023-02-16T13:07:56.576Z,18.23
2023-02-16T13:10:25.135Z,18.25
2023-02-16T13:12:54.639Z,19.15
2023-02-16T13:15:26.357Z,18.95
2023-02-16T13:18:05.056Z,19.02
2023-02-16T13:20:31.899Z,18.83
2023-02-16T13:23:27.731Z,18.33
2023-02-16T13:26:29.611Z,18.08
2023-02-16T13:29:46.873Z,17.95
2023-02-16T13:32:21.089Z,18.60
2023-02-16T13:35:01.382Z,18.03
2023-02-16T13:37:57.168Z,18.50
2023-02-16T13:40:42.315Z,19.10
2023-02-16T13:43:14.785Z,18.33
2023-02-16T13:45:44.322Z,19.63
2023-02-16T13:48:52.842Z,19.03
2023-02-16T13:51:25.240Z,20.13
2023-02-16T13:53:58.799Z,18.95
2023-02-16T13:56:37.842Z,18.95
2023-02-16T13:59:16.321Z,19.00
2023-02-16T14:01:44.113Z,18.47
2023-02-16T14:04:33.366Z,19.08
2023-02-16T14:07:02.952Z,18.60
2023-02-16T14:09:38.989Z,18.33
2023-02-16T14:12:16.492Z,18.55
2023-02-16T14:14:42.914Z,19.63
2023-02-16T14:17:16.286Z,19.27
2023-02-16T14:19:53.214Z,17.80
2023-02-16T14:22:44.419Z,17.02
2023-02-16T14:25:20.009Z,17.92
2023-02-16T14:27:50.057Z,14.53
2023-02-16T14:30:35.038Z,16.67
2023-02-16T14:33:13.766Z,17.45
2023-02-16T14:35:43.528Z,15.32
2023-02-16T14:38:28.389Z,16.30
2023-02-16T14:40:58.122Z,16.50
2023-02-16T14:43:39.662Z,16.38
2023-02-16T14:46:27.946Z,14.90
2023-02-16T14:49:16.129Z,15.85
2023-02-16T14:52:14.816Z,14.95
2023-02-16T14:54:47.387Z,15.03
2023-02-16T14:57:36.849Z,15.32
2023-02-16T15:00:27.814Z,16.08
2023-02-16T15:02:59.506Z,18.13
2023-02-16T15:05:34.505Z,19.35
2023-02-16T15:08:16.464Z,18.63
2023-02-16T15:10:45.319Z,18.83
2023-02-16T15:13:20.263Z,18.52
2023-02-16T15:15:49.347Z,21.42
2023-02-16T15:18:20.379Z,19.70
2023-02-16T15:20:50.443Z,20.97
2023-02-16T15:23:28.142Z,20.98
2023-02-16T15:25:56.321Z,21.75
2023-02-16T15:28:26.563Z,22.02
2023-02-16T15:30:57.147Z,21.35
2023-02-16T15:33:23.780Z,21.13
2023-02-16T15:35:56.362Z,22.30
2023-02-16T15:38:25.248Z,24.17
2023-02-16T15:40:54.554Z,22.77
2023-02-16T15:43:30.399Z,22.98
2023-02-16T15:45:57.754Z,24.67
2023-02-16T15:48:30.056Z,23.63
2023-02-16T15:51:01.809Z,25.00
2023-02-16T15:53:44.658Z,25.08
2023-02-16T15:56:20.889Z,25.85
2023-02-16T15:58:47.447Z,26.13
2023-02-16T16:01:31.952Z,25.02
2023-02-16T16:04:16.194Z,26.10
2023-02-16T16:06:43.179Z,24.88
2023-02-16T16:09:21.470Z,26.08
2023-02-16T16:11:48.974Z,24.10
2023-02-16T16:14:16.174Z,25.30
2023-02-16T16:16:44.580Z,24.40
2023-02-16T16:19:17.730Z,24.05
2023-02-16T16:21:50.690Z,22.73
2023-02-16T16:24:31.995Z,24.83
2023-02-16T16:27:01.562Z,24.10
2023-02-16T16:29:42.170Z,24.35
2023-02-16T16:32:24.241Z,23.83
2023-02-16T16:34:51.609Z,24.85
2023-02-16T16:37:24.938Z,26.07
2023-02-16T16:40:02.464Z,25.25
2023-02-16T16:42:29.144Z,24.33
2023-02-16T16:44:59.754Z,28.00
2023-02-16T16:47:39.573Z,25.25
2023-02-16T16:50:12.061Z,23.03
2023-02-16T16:52:50.031Z,24.42
2023-02-16T16:55:19.303Z,25.77
2023-02-16T16:57:46.703Z,24.27
2023-02-16T17:00:13.991Z,28.20
2023-02-16T17:02:40.614Z,25.17
2023-02-16T17:05:07.699Z,27.63
2023-02-16T17:07:34.498Z,25.73
2023-02-16T17:10:01.024Z,27.90
2023-02-16T17:12:28.333Z,26.60
2023-02-16T17:14:55.784Z,25.33
2023-02-16T17:17:22.322Z,24.45
2023-02-16T17:19:48.847Z,26.10
2023-02-16T17:22:18.443Z,24.83
2023-02-16T17:24:45.169Z,23.83
2023-02-16T17:27:12.809Z,22.77
2023-02-16T17:29:39.843Z,22.73
2023-02-16T17:32:06.409Z,25.33
2023-02-16T17:34:32.981Z,23.23
2023-02-16T17:37:01.250Z,24.23
2023-02-16T17:39:27.770Z,22.10
2023-02-16T17:41:54.367Z,21.33
2023-02-16T17:44:20.893Z,23.40
2023-02-16T17:46:47.618Z,24.98
2023-02-16T17:49:14.298Z,23.55
2023-02-16T17:51:41.380Z,22.43
2023-02-16T17:54:08.609Z,25.17
2023-02-16T17:56:36.339Z,24.15
2023-02-16T17:59:03.441Z,23.17
2023-02-16T18:01:29.969Z,25.08
2023-02-16T18:03:56.547Z,27.13
2023-02-16T18:06:23.820Z,26.60
2023-02-16T18:08:50.957Z,27.10
2023-02-16T18:11:17.836Z,30.77
2023-02-16T18:13:44.742Z,33.22
2023-02-16T18:16:18.078Z,29.53
2023-02-16T18:18:45.550Z,28.73
2023-02-16T18:21:12.081Z,31.40
2023-02-16T18:23:39.136Z,28.55
2023-02-16T18:26:06.937Z,29.73
2023-02-16T18:28:34.181Z,27.77
2023-02-16T18:31:01.615Z,26.60
2023-02-16T18:33:28.209Z,28.67
2023-02-16T18:35:56.444Z,28.52
2023-02-16T18:38:23.856Z,28.77
2023-02-16T18:40:52.670Z,26.50
2023-02-16T18:43:19.332Z,28.15
2023-02-16T18:45:45.851Z,25.88
2023-02-16T18:48:13.064Z,27.95
2023-02-16T18:50:40.014Z,27.02
2023-02-16T18:53:06.894Z,28.17
2023-02-16T18:55:33.443Z,25.58
2023-02-16T18:58:01.431Z,23.20
2023-02-16T19:00:28.147Z,26.08
2023-02-16T19:02:55.079Z,24.83
2023-02-16T19:05:22.174Z,26.43
2023-02-16T19:07:48.828Z,24.88
2023-02-16T19:10:15.542Z,24.25
2023-02-16T19:12:42.138Z,24.40
2023-02-16T19:15:09.235Z,25.40
2023-02-16T19:17:35.706Z,21.90
2023-02-16T19:20:02.209Z,23.77
2023-02-16T19:22:28.673Z,26.73
2023-02-16T19:24:55.149Z,27.63
2023-02-16T19:27:21.749Z,25.05
2023-02-16T19:29:48.261Z,24.07
2023-02-16T19:32:14.772Z,28.95
2023-02-16T19:34:41.344Z,25.25
2023-02-16T19:37:07.844Z,24.77
2023-02-16T19:39:35.006Z,28.40
2023-02-16T19:42:01.420Z,24.93
2023-02-16T19:44:27.951Z,24.10
2023-02-16T19:46:54.448Z,24.88
2023-02-16T19:49:20.981Z,25.85
2023-02-16T19:51:47.570Z,25.40
2023-02-16T19:54:14.711Z,28.57
2023-02-16T19:56:41.417Z,24.50
2023-02-16T19:59:08.333Z,24.10
2023-02-16T20:01:35.199Z,23.75
2023-02-16T20:04:01.753Z,23.23
2023-02-16T20:06:31.429Z,23.77
2023-02-16T20:08:59.621Z,25.50
2023-02-16T20:11:28.417Z,24.65
2023-02-16T20:13:56.233Z,21.65
2023-02-16T20:16:23.587Z,22.02
2023-02-16T20:18:50.189Z,21.40
2023-02-16T20:21:22.705Z,20.85
2023-02-16T20:23:51.232Z,19.55
2023-02-16T20:26:20.988Z,17.38
2023-02-16T20:28:48.959Z,18.60
2023-02-16T20:31:17.272Z,17.10
2023-02-16T20:33:44.312Z,16.83
2023-02-16T20:36:12.015Z,17.92
2023-02-16T20:38:38.960Z,16.98
2023-02-16T20:41:05.950Z,16.70
2023-02-16T20:43:33.432Z,17.70
2023-02-16T20:46:01.757Z,20.27
2023-02-16T20:48:28.330Z,20.13
2023-02-16T20:50:57.019Z,20.58
2023-02-16T20:53:24.259Z,21.00
2023-02-16T20:55:50.973Z,20.30
2023-02-16T20:58:17.556Z,20.00
2023-02-16T21:00:44.752Z,20.30
2023-02-16T21:03:11.235Z,18.45
2023-02-16T21:05:37.789Z,18.27
2023-02-16T21:08:04.418Z,16.40
2023-02-16T21:10:30.962Z,16.20
2023-02-16T21:12:58.066Z,16.05
2023-02-16T21:15:24.526Z,14.75
2023-02-16T21:17:50.983Z,12.80
2023-02-16T21:20:17.459Z,12.53
2023-02-16T21:22:44.020Z,12.63
2023-02-16T21:25:10.561Z,13.57
2023-02-16T21:27:37.118Z,12.77
2023-02-16T21:30:05.106Z,11.60
2023-02-16T21:32:31.717Z,12.30
2023-02-16T21:34:58.233Z,12.18
2023-02-16T21:37:24.683Z,12.02
2023-02-16T21:39:51.119Z,11.20
2023-02-16T21:42:17.558Z,11.80
2023-02-16T21:44:44.090Z,10.43
2023-02-16T21:47:14.738Z,9.15
2023-02-16T21:49:41.164Z,9.65
2023-02-16T21:52:07.719Z,8.98
2023-02-16T21:54:34.201Z,9.18
2023-02-16T21:57:00.650Z,8.40
2023-02-16T21:59:27.060Z,7.70
2023-02-16T22:01:53.527Z,8.57
2023-02-16T22:04:22.179Z,8.68
2023-02-16T22:06:50.313Z,7.85
2023-02-16T22:09:23.148Z,7.63
2023-02-16T22:11:50.252Z,7.93
2023-02-16T22:14:17.019Z,8.05
2023-02-16T22:16:45.892Z,6.95
2023-02-16T22:19:15.162Z,6.95
2023-02-16T22:21:43.327Z,6.40
2023-02-16T22:24:15.134Z,6.35
2023-02-16T22:26:42.049Z,6.78
2023-02-16T22:29:09.566Z,6.50
2023-02-16T22:31:36.904Z,6.75
2023-02-16T22:34:11.684Z,5.63
2023-02-16T22:36:38.291Z,5.97
2023-02-16T22:39:05.047Z,6.25
2023-02-16T22:41:32.362Z,5.43
2023-02-16T22:43:59.141Z,5.72
2023-02-16T22:46:27.743Z,5.40
2023-02-16T22:48:56.448Z,5.22
2023-02-16T22:51:22.902Z,5.75
2023-02-16T22:53:49.415Z,5.45
2023-02-16T22:56:18.565Z,5.55
2023-02-16T22:58:45.356Z,5.60
2023-02-16T23:01:15.284Z,5.65
2023-02-16T23:03:42.265Z,5.68
2023-02-16T23:06:17.448Z,5.75
2023-02-16T23:08:45.210Z,6.00
2023-02-16T23:11:12.255Z,6.83
2023-02-16T23:13:39.276Z,6.78
2023-02-16T23:16:14.812Z,6.22
2023-02-16T23:18:42.052Z,7.47
2023-02-16T23:21:18.490Z,6.53
2023-02-16T23:23:46.237Z,7.53
2023-02-16T23:26:13.120Z,7.03
2023-02-16T23:28:42.009Z,7.25
2023-02-16T23:31:09.700Z,7.55
2023-02-16T23:33:36.202Z,6.80
2023-02-16T23:36:02.766Z,7.50
2023-02-16T23:38:29.321Z,6.50
2023-02-16T23:41:01.846Z,7.45
2023-02-16T23:43:28.972Z,7.00
2023-02-16T23:45:55.748Z,7.10
2023-02-16T23:48:23.038Z,7.53
2023-02-16T23:50:50.561Z,6.65
2023-02-16T23:53:18.456Z,5.97
2023-02-16T23:55:44.914Z,6.18
2023-02-16T23:58:11.369Z,6.57
